createdAt,value
2019-05-01T00:00:48.082Z,14.13
2019-05-01T00:03:39.883Z,14.13
2019-05-01T00:06:10.880Z,14.15
2019-05-01T00:08:41.691Z,14.12
2019-05-01T00:11:11.724Z,14.08
2019-05-01T00:13:41.767Z,14.06
2019-05-01T00:16:11.889Z,14.03
2019-05-01T00:18:41.679Z,13.98
2019-05-01T00:21:11.623Z,13.96
2019-05-01T00:23:41.518Z,13.94
2019-05-01T00:26:11.374Z,13.93
2019-05-01T00:28:41.334Z,13.93
2019-05-01T00:31:11.342Z,13.90
2019-05-01T00:33:41.210Z,13.90
2019-05-01T00:36:11.485Z,13.90
2019-05-01T00:38:41.271Z,13.90
2019-05-01T00:41:11.157Z,13.82
2019-05-01T00:43:40.961Z,13.78
2019-05-01T00:46:10.830Z,13.75
2019-05-01T00:48:40.717Z,13.71
2019-05-01T00:51:12.572Z,13.67
2019-05-01T00:53:42.523Z,13.64
2019-05-01T00:56:20.290Z,13.61
2019-05-01T00:58:59.166Z,13.59
2019-05-01T01:02:06.252Z,13.56
2019-05-01T01:04:36.530Z,13.53
2019-05-01T01:07:06.478Z,13.32
2019-05-01T01:09:36.435Z,13.30
2019-05-01T01:12:06.403Z,13.31
2019-05-01T01:14:36.319Z,13.32
2019-05-01T01:17:06.642Z,13.19
2019-05-01T01:19:36.829Z,13.10
2019-05-01T01:22:07.368Z,12.91
2019-05-01T01:24:37.513Z,12.87
2019-05-01T01:27:07.457Z,12.79
2019-05-01T01:29:37.398Z,12.73
2019-05-01T01:32:07.513Z,12.66
2019-05-01T01:34:37.804Z,12.69
2019-05-01T01:59:15.685Z,12.68
2019-05-01T02:02:04.264Z,12.72
2019-05-01T02:04:48.030Z,12.70
2019-05-01T02:07:18.152Z,12.69
2019-05-01T02:09:48.191Z,12.71
2019-05-01T02:12:19.440Z,12.75
2019-05-01T02:14:49.377Z,12.76
2019-05-01T02:17:19.326Z,12.73
2019-05-01T02:19:49.260Z,12.74
2019-05-01T02:22:19.211Z,12.72
2019-05-01T02:24:49.165Z,12.71
2019-05-01T02:27:25.003Z,12.69
2019-05-01T02:29:58.180Z,12.66
2019-05-01T02:32:29.770Z,12.65
2019-05-01T02:35:01.111Z,12.63
2019-05-01T02:37:34.429Z,12.61
2019-05-01T02:40:16.956Z,12.60
2019-05-01T02:42:46.902Z,12.63
2019-05-01T02:45:18.139Z,12.66
2019-05-01T02:47:49.071Z,12.66
2019-05-01T02:50:21.260Z,12.62
2019-05-01T02:52:51.446Z,12.61
2019-05-01T02:55:28.464Z,12.62
2019-05-01T02:57:59.052Z,12.66
2019-05-01T03:00:29.498Z,12.65
2019-05-01T03:03:01.180Z,12.62
2019-05-01T03:05:31.585Z,12.61
2019-05-01T03:08:01.523Z,12.61
2019-05-01T03:10:31.678Z,12.60
2019-05-01T03:13:02.837Z,12.61
2019-05-01T03:15:35.717Z,12.57
2019-05-01T03:18:16.130Z,12.58
2019-05-01T03:21:03.702Z,12.59
2019-05-01T03:23:40.600Z,12.58
2019-05-01T03:26:11.017Z,12.54
2019-05-01T03:28:41.785Z,12.51
2019-05-01T03:31:11.992Z,12.48
2019-05-01T03:33:41.933Z,12.45
2019-05-01T03:36:12.066Z,12.45
2019-05-01T03:38:42.640Z,12.45
2019-05-01T03:41:12.881Z,12.46
2019-05-01T03:43:43.026Z,12.46
2019-05-01T03:46:13.409Z,12.48
2019-05-01T03:48:43.673Z,12.47
2019-05-01T03:51:14.342Z,12.48
2019-05-01T03:53:44.403Z,12.49
2019-05-01T03:56:15.141Z,12.50
2019-05-01T03:58:45.161Z,12.55
2019-05-01T04:01:38.327Z,12.59
2019-05-01T04:04:11.529Z,12.60
2019-05-01T04:06:41.855Z,12.63
2019-05-01T04:09:11.939Z,12.67
2019-05-01T04:11:42.221Z,12.71
2019-05-01T04:14:12.877Z,12.72
2019-05-01T04:16:45.820Z,12.72
2019-05-01T04:19:16.180Z,12.72
2019-05-01T04:21:52.276Z,12.69
2019-05-01T04:24:22.642Z,12.71
2019-05-01T04:26:53.311Z,12.69
2019-05-01T04:29:31.808Z,12.71
2019-05-01T04:32:10.623Z,12.73
2019-05-01T04:34:58.243Z,12.73
2019-05-01T04:37:29.130Z,12.71
2019-05-01T04:39:59.589Z,12.67
2019-05-01T04:42:29.519Z,12.62
2019-05-01T04:45:00.030Z,12.61
2019-05-01T04:47:29.529Z,12.58
2019-05-01T04:50:00.609Z,12.56
2019-05-01T04:52:30.554Z,12.58
2019-05-01T04:55:00.508Z,12.58
2019-05-01T04:57:30.994Z,12.60
2019-05-01T05:00:01.343Z,12.60
2019-05-01T05:02:38.232Z,12.60
2019-05-01T05:05:08.538Z,12.58
2019-05-01T05:07:38.511Z,12.57
2019-05-01T05:10:09.146Z,12.58
2019-05-01T05:12:56.797Z,12.58
2019-05-01T05:15:43.253Z,12.51
2019-05-01T05:18:14.126Z,12.47
2019-05-01T05:20:44.061Z,12.44
2019-05-01T05:23:14.001Z,12.45
2019-05-01T05:25:44.153Z,12.47
2019-05-01T05:28:14.504Z,12.46
2019-05-01T05:30:45.758Z,12.46
2019-05-01T05:33:19.419Z,12.48
2019-05-01T05:35:52.900Z,12.49
2019-05-01T05:38:29.661Z,12.52
2019-05-01T05:41:01.038Z,12.53
2019-05-01T05:43:31.475Z,12.52
2019-05-01T05:46:01.504Z,12.52
2019-05-01T05:48:31.665Z,12.54
2019-05-01T05:51:22.774Z,12.43
2019-05-01T05:53:54.706Z,12.36
2019-05-01T05:56:31.437Z,12.33
2019-05-01T05:59:08.497Z,12.32
2019-05-01T06:01:59.438Z,12.30
2019-05-01T06:04:55.445Z,12.32
2019-05-01T06:07:35.175Z,12.36
2019-05-01T06:10:42.612Z,12.37
2019-05-01T06:13:23.071Z,12.36
2019-05-01T06:16:11.911Z,12.41
2019-05-01T06:18:50.242Z,12.45
2019-05-01T06:21:28.387Z,12.52
2019-05-01T06:24:17.698Z,12.56
2019-05-01T06:26:47.734Z,12.56
2019-05-01T06:29:17.664Z,12.55
2019-05-01T06:31:47.726Z,12.55
2019-05-01T06:34:17.987Z,12.52
2019-05-01T06:36:49.701Z,12.49
2019-05-01T06:39:19.900Z,12.43
2019-05-01T06:41:50.028Z,12.43
2019-05-01T06:44:43.851Z,12.45
2019-05-01T06:47:30.090Z,12.52
2019-05-01T06:50:12.904Z,12.59
2019-05-01T06:52:42.804Z,12.66
2019-05-01T06:55:12.910Z,12.72
2019-05-01T06:57:45.482Z,12.76
2019-05-01T07:00:17.261Z,12.69
2019-05-01T07:02:50.011Z,12.70
2019-05-01T07:05:22.137Z,12.71
2019-05-01T07:07:55.005Z,12.69
2019-05-01T07:10:31.602Z,12.69
2019-05-01T07:13:05.185Z,12.71
2019-05-01T07:15:34.264Z,12.75
2019-05-01T07:18:05.124Z,12.78
2019-05-01T07:20:53.599Z,12.82
2019-05-01T07:23:24.570Z,12.81
2019-05-01T07:25:55.083Z,12.81
2019-05-01T07:28:34.478Z,12.83
2019-05-01T07:31:13.852Z,12.88
2019-05-01T07:33:47.030Z,12.93
2019-05-01T07:36:17.688Z,12.97
2019-05-01T07:38:48.610Z,13.01
2019-05-01T07:41:18.763Z,13.00
2019-05-01T07:44:14.590Z,12.98
2019-05-01T07:47:03.467Z,12.95
2019-05-01T07:49:54.916Z,12.92
2019-05-01T07:52:25.698Z,12.93
2019-05-01T07:54:57.132Z,12.93
2019-05-01T07:57:28.232Z,12.91
2019-05-01T08:00:03.651Z,12.92
2019-05-01T08:02:32.712Z,12.86
2019-05-01T08:05:04.921Z,12.87
2019-05-01T08:07:34.439Z,12.90
2019-05-01T08:10:06.367Z,12.83
2019-05-01T08:12:36.342Z,12.81
2019-05-01T08:15:06.773Z,12.84
2019-05-01T08:17:39.757Z,12.84
2019-05-01T08:20:23.249Z,12.87
2019-05-01T08:22:53.303Z,12.90
2019-05-01T08:25:23.817Z,12.94
2019-05-01T08:28:05.982Z,12.95
2019-05-01T08:31:01.133Z,12.95
2019-05-01T08:33:51.573Z,12.93
2019-05-01T08:36:25.157Z,12.91
2019-05-01T08:38:55.646Z,12.93
2019-05-01T08:41:27.090Z,12.98
2019-05-01T08:43:57.617Z,13.00
2019-05-01T08:46:53.537Z,13.00
2019-05-01T08:49:49.538Z,12.95
2019-05-01T08:52:23.167Z,12.93
2019-05-01T08:54:54.988Z,12.84
2019-05-01T08:57:28.999Z,12.85
2019-05-01T09:00:00.327Z,12.84
2019-05-01T09:02:28.769Z,12.80
2019-05-01T09:05:02.455Z,12.67
2019-05-01T09:07:30.493Z,12.74
2019-05-01T09:10:03.182Z,12.77
2019-05-01T09:12:33.938Z,12.79
2019-05-01T09:15:07.123Z,12.85
2019-05-01T09:17:36.275Z,12.87
2019-05-01T09:20:06.910Z,12.86
2019-05-01T09:22:37.323Z,12.86
2019-05-01T09:25:09.189Z,12.59
2019-05-01T09:27:59.558Z,12.36
2019-05-01T09:30:34.803Z,12.30
2019-05-01T09:33:05.578Z,12.18
2019-05-01T09:35:40.349Z,12.08
2019-05-01T09:38:08.059Z,12.15
2019-05-01T09:40:38.556Z,12.15
2019-05-01T09:43:09.018Z,12.10
2019-05-01T09:45:38.993Z,12.08
2019-05-01T09:48:09.548Z,11.97
2019-05-01T09:50:44.139Z,12.10
2019-05-01T09:53:34.351Z,12.19
2019-05-01T09:56:11.721Z,12.24
2019-05-01T09:59:00.920Z,12.23
2019-05-01T10:01:32.869Z,12.29
2019-05-01T10:04:05.528Z,12.38
2019-05-01T10:06:35.167Z,12.48
2019-05-01T10:09:12.047Z,12.56
2019-05-01T10:11:40.770Z,12.61
2019-05-01T10:14:12.029Z,12.63
2019-05-01T10:16:43.624Z,12.57
2019-05-01T10:19:14.471Z,12.55
2019-05-01T10:21:44.578Z,12.44
2019-05-01T10:24:15.829Z,12.42
2019-05-01T10:26:47.786Z,12.37
2019-05-01T10:29:45.804Z,12.44
2019-05-01T10:32:38.514Z,12.46
2019-05-01T10:35:41.965Z,12.41
2019-05-01T10:38:04.679Z,12.38
2019-05-01T10:40:34.299Z,12.22
2019-05-01T10:43:04.641Z,12.21
2019-05-01T10:45:34.879Z,12.20
2019-05-01T10:48:06.246Z,12.34
2019-05-01T10:50:36.544Z,12.40
2019-05-01T10:53:06.713Z,12.43
2019-05-01T10:55:36.945Z,12.44
2019-05-01T10:58:07.001Z,12.46
2019-05-01T11:00:39.812Z,12.56
2019-05-01T11:03:10.561Z,12.60
2019-05-01T11:05:55.378Z,12.63
2019-05-01T11:08:15.114Z,12.71
2019-05-01T11:10:45.549Z,12.78
2019-05-01T11:13:15.843Z,12.84
2019-05-01T11:15:46.033Z,12.93
2019-05-01T11:18:16.122Z,13.04
2019-05-01T11:20:46.410Z,12.91
2019-05-01T11:23:16.623Z,12.89
2019-05-01T11:25:46.699Z,12.85
2019-05-01T11:28:17.926Z,12.97
2019-05-01T11:30:48.235Z,12.94
2019-05-01T11:33:30.186Z,12.92
2019-05-01T11:36:22.464Z,12.97
2019-05-01T11:39:03.914Z,13.00
2019-05-01T11:41:39.912Z,13.00
2019-05-01T11:44:10.088Z,13.04
2019-05-01T11:46:40.584Z,13.15
2019-05-01T11:49:10.926Z,13.08
2019-05-01T11:51:47.465Z,13.07
2019-05-01T11:54:14.773Z,13.18
2019-05-01T11:56:44.988Z,13.25
2019-05-01T11:59:15.036Z,13.24
2019-05-01T12:01:45.076Z,13.28
2019-05-01T12:04:19.056Z,13.35
2019-05-01T12:06:49.150Z,13.39
2019-05-01T12:09:19.539Z,13.40
2019-05-01T12:11:55.154Z,13.35
2019-05-01T12:14:28.323Z,13.42
2019-05-01T12:17:20.258Z,13.50
2019-05-01T12:19:50.325Z,13.58
2019-05-01T12:22:20.332Z,13.57
2019-05-01T12:24:52.064Z,13.58
2019-05-01T12:27:22.122Z,13.65
2019-05-01T12:29:52.717Z,13.71
2019-05-01T12:32:45.140Z,13.74
2019-05-01T12:35:15.528Z,13.71
2019-05-01T12:37:45.874Z,13.73
2019-05-01T12:40:20.734Z,13.76
2019-05-01T12:42:50.966Z,13.71
2019-05-01T12:45:21.479Z,13.70
2019-05-01T12:47:56.969Z,13.75
2019-05-01T12:50:27.000Z,13.80
2019-05-01T12:53:15.634Z,13.86
2019-05-01T12:56:04.794Z,13.81
2019-05-01T12:58:38.173Z,13.73
2019-05-01T13:01:08.172Z,13.85
2019-05-01T13:03:38.521Z,13.96
2019-05-01T13:06:08.555Z,14.00
2019-05-01T13:08:38.578Z,14.04
2019-05-01T13:11:08.688Z,14.15
2019-05-01T13:13:39.135Z,14.13
2019-05-01T13:16:10.541Z,14.16
2019-05-01T13:18:40.548Z,14.24
2019-05-01T13:21:10.877Z,14.32
2019-05-01T13:23:43.069Z,14.36
2019-05-01T13:26:32.210Z,14.37
2019-05-01T13:29:14.749Z,14.50
2019-05-01T13:31:58.780Z,14.61
2019-05-01T13:34:31.359Z,14.71
2019-05-01T13:37:03.061Z,14.78
2019-05-01T13:39:33.436Z,14.87
2019-05-01T13:42:03.542Z,15.03
2019-05-01T13:44:36.366Z,15.13
2019-05-01T13:47:25.851Z,15.30
2019-05-01T13:49:56.024Z,15.52
2019-05-01T13:52:26.289Z,15.81
2019-05-01T13:54:56.887Z,16.13
2019-05-01T13:57:27.767Z,16.44
2019-05-01T13:59:58.353Z,16.72
2019-05-01T14:02:28.565Z,16.88
2019-05-01T14:05:01.743Z,16.99
2019-05-01T14:07:32.177Z,17.05
2019-05-01T14:10:02.559Z,17.12
2019-05-01T14:12:34.064Z,17.24
2019-05-01T14:15:04.623Z,17.35
2019-05-01T14:17:34.958Z,17.39
2019-05-01T14:20:33.982Z,17.32
2019-05-01T14:23:09.580Z,17.27
2019-05-01T14:25:58.059Z,17.35
2019-05-01T14:28:28.150Z,17.44
2019-05-01T14:31:00.562Z,17.54
2019-05-01T14:33:32.257Z,17.57
2019-05-01T14:36:02.673Z,17.62
2019-05-01T14:38:32.933Z,17.75
2019-05-01T14:41:04.742Z,17.84
2019-05-01T14:43:35.219Z,17.82
2019-05-01T14:46:09.102Z,17.81
2019-05-01T14:48:39.221Z,17.84
2019-05-01T14:51:11.264Z,17.83
2019-05-01T14:53:44.253Z,17.75
2019-05-01T14:56:22.447Z,17.65
2019-05-01T14:58:52.408Z,17.70
2019-05-01T15:01:22.561Z,17.69
2019-05-01T15:03:55.913Z,17.60
2019-05-01T15:06:26.136Z,17.64
2019-05-01T15:08:56.285Z,17.58
2019-05-01T15:11:26.602Z,17.48
2019-05-01T15:14:22.141Z,17.51
2019-05-01T15:17:17.687Z,17.54
2019-05-01T15:20:07.171Z,17.54
2019-05-01T15:22:38.075Z,17.56
2019-05-01T15:25:08.953Z,17.46
2019-05-01T15:27:39.007Z,17.55
2019-05-01T15:30:10.199Z,17.65
2019-05-01T15:32:40.254Z,17.73
2019-05-01T15:35:12.340Z,17.72
2019-05-01T15:37:42.268Z,17.75
2019-05-01T15:40:21.127Z,17.77
2019-05-01T15:42:55.820Z,17.80
2019-05-01T15:45:26.086Z,17.85
2019-05-01T15:47:56.103Z,17.93
2019-05-01T15:50:27.557Z,17.95
2019-05-01T15:52:57.741Z,18.03
2019-05-01T15:55:30.938Z,18.10
2019-05-01T15:58:20.824Z,18.14
2019-05-01T16:00:51.302Z,18.19
2019-05-01T16:03:22.161Z,18.16
2019-05-01T16:05:52.552Z,18.25
2019-05-01T16:08:22.980Z,18.33
2019-05-01T16:11:08.715Z,18.43
2019-05-01T16:13:59.810Z,18.58
2019-05-01T16:16:30.124Z,18.67
2019-05-01T16:19:04.618Z,18.66
2019-05-01T16:21:35.109Z,18.67
2019-05-01T16:24:05.740Z,18.69
2019-05-01T16:26:37.915Z,18.74
2019-05-01T16:29:14.306Z,18.77
2019-05-01T16:31:45.286Z,18.86
2019-05-01T16:34:15.904Z,18.85
2019-05-01T16:36:47.253Z,18.81
2019-05-01T16:39:46.451Z,18.72
2019-05-01T16:42:16.654Z,18.60
2019-05-01T16:44:47.960Z,18.49
2019-05-01T16:47:19.727Z,18.53
2019-05-01T16:49:49.775Z,18.50
2019-05-01T16:52:23.004Z,18.49
2019-05-01T16:54:59.305Z,18.46
2019-05-01T16:57:27.192Z,18.50
2019-05-01T16:59:57.338Z,18.56
2019-05-01T17:02:45.040Z,18.59
2019-05-01T17:05:26.826Z,18.62
2019-05-01T17:08:06.236Z,18.58
2019-05-01T17:10:37.969Z,18.60
2019-05-01T17:13:08.609Z,18.59
2019-05-01T17:15:43.426Z,18.42
2019-05-01T17:18:13.810Z,18.38
2019-05-01T17:20:43.702Z,18.13
2019-05-01T17:23:14.009Z,18.22
2019-05-01T17:25:44.362Z,18.13
2019-05-01T17:28:14.517Z,18.01
2019-05-01T17:30:55.282Z,17.94
2019-05-01T17:33:26.161Z,17.86
2019-05-01T17:35:56.245Z,17.78
2019-05-01T17:38:27.645Z,17.73
2019-05-01T17:40:57.783Z,17.66
2019-05-01T17:43:28.154Z,17.57
2019-05-01T17:45:58.612Z,17.50
2019-05-01T17:48:33.289Z,17.44
2019-05-01T17:51:01.938Z,17.34
2019-05-01T17:53:32.761Z,17.28
2019-05-01T17:56:02.816Z,17.22
2019-05-01T17:58:32.859Z,17.18
2019-05-01T18:01:27.946Z,17.10
2019-05-01T18:04:12.746Z,17.05
2019-05-01T18:06:46.561Z,17.01
2019-05-01T18:09:17.065Z,16.97
2019-05-01T18:11:52.369Z,16.92
2019-05-01T18:14:19.527Z,16.84
2019-05-01T18:16:49.514Z,16.77
2019-05-01T18:19:19.822Z,16.73
2019-05-01T18:22:00.312Z,16.68
2019-05-01T18:24:49.496Z,16.64
2019-05-01T18:27:38.761Z,16.57
2019-05-01T18:30:15.935Z,16.49
2019-05-01T18:32:47.545Z,16.42
2019-05-01T18:35:16.598Z,16.35
2019-05-01T18:37:58.161Z,16.30
2019-05-01T18:40:50.138Z,16.26
2019-05-01T18:43:20.651Z,16.18
2019-05-01T18:45:53.126Z,16.11
2019-05-01T18:48:23.942Z,16.05
2019-05-01T18:50:56.096Z,16.01
2019-05-01T18:53:26.113Z,15.96
2019-05-01T18:55:56.363Z,15.90
2019-05-01T18:58:26.231Z,15.83
2019-05-01T19:00:56.176Z,15.77
2019-05-01T19:03:26.017Z,15.73
2019-05-01T19:05:56.097Z,15.69
2019-05-01T19:08:26.018Z,15.63
2019-05-01T19:10:55.894Z,15.57
2019-05-01T19:13:26.174Z,15.49
2019-05-01T19:15:56.385Z,15.43
2019-05-01T19:18:26.251Z,15.38
2019-05-01T19:20:59.580Z,15.32
2019-05-01T19:23:29.864Z,15.28
2019-05-01T19:26:04.954Z,15.21
2019-05-01T19:28:31.603Z,15.16
2019-05-01T19:31:01.552Z,15.11
2019-05-01T19:33:31.463Z,15.07
2019-05-01T19:36:02.492Z,15.03
2019-05-01T19:38:35.075Z,14.98
2019-05-01T19:41:08.852Z,14.94
2019-05-01T19:43:40.463Z,14.90
2019-05-01T19:46:08.776Z,14.84
2019-05-01T19:48:39.039Z,14.81
2019-05-01T19:51:09.049Z,14.76
2019-05-01T19:53:39.075Z,14.68
2019-05-01T19:56:09.155Z,14.65
2019-05-01T19:58:39.124Z,14.64
2019-05-01T20:01:09.519Z,14.61
2019-05-01T20:03:39.875Z,14.57
2019-05-01T20:06:09.883Z,14.55
2019-05-01T20:08:39.832Z,14.53
2019-05-01T20:11:10.027Z,14.51
2019-05-01T20:13:40.318Z,14.49
2019-05-01T20:16:11.479Z,14.48
2019-05-01T20:18:41.389Z,14.46
2019-05-01T20:21:11.410Z,14.43
2019-05-01T20:23:41.311Z,14.40
2019-05-01T20:26:11.263Z,14.38
2019-05-01T20:28:41.255Z,14.35
2019-05-01T20:31:11.233Z,14.35
2019-05-01T20:33:44.471Z,14.34
2019-05-01T20:36:12.888Z,14.33
2019-05-01T20:38:42.840Z,14.30
2019-05-01T20:41:16.057Z,14.28
2019-05-01T20:43:45.756Z,14.27
2019-05-01T20:46:15.940Z,14.25
2019-05-01T20:48:45.956Z,14.25
2019-05-01T20:51:16.183Z,14.24
2019-05-01T20:53:46.048Z,14.24
2019-05-01T20:56:25.300Z,14.22
2019-05-01T20:58:57.865Z,14.22
2019-05-01T21:01:28.219Z,14.23
2019-05-01T21:04:16.506Z,14.23
2019-05-01T21:06:48.117Z,14.22
2019-05-01T21:09:20.998Z,14.19
2019-05-01T21:12:04.974Z,14.13
2019-05-01T21:14:26.128Z,14.09
2019-05-01T21:16:55.995Z,14.03
2019-05-01T21:19:28.738Z,14.02
2019-05-01T21:21:58.478Z,14.01
2019-05-01T21:24:28.428Z,13.95
2019-05-01T21:26:59.590Z,13.88
2019-05-01T21:29:29.709Z,13.83
2019-05-01T21:31:59.635Z,13.81
2019-05-01T21:34:29.520Z,13.78
2019-05-01T21:37:00.062Z,13.77
2019-05-01T21:39:29.918Z,13.72
2019-05-01T21:42:00.037Z,13.70
2019-05-01T21:44:30.158Z,13.69
2019-05-01T21:47:00.108Z,13.65
2019-05-01T21:49:29.978Z,13.60
2019-05-01T21:51:59.943Z,13.58
2019-05-01T21:54:30.185Z,13.57
2019-05-01T21:57:00.168Z,13.56
2019-05-01T21:59:31.388Z,13.55
2019-05-01T22:02:05.394Z,13.56
2019-05-01T22:04:33.202Z,13.55
2019-05-01T22:07:04.337Z,13.54
2019-05-01T22:09:35.079Z,13.51
2019-05-01T22:12:08.393Z,13.49
2019-05-01T22:14:51.968Z,13.47
2019-05-01T22:17:32.061Z,13.43
2019-05-01T22:20:00.366Z,13.40
2019-05-01T22:22:38.716Z,13.37
2019-05-01T22:25:24.924Z,13.33
2019-05-01T22:28:01.276Z,13.28
2019-05-01T22:30:42.339Z,13.22
2019-05-01T22:33:09.655Z,13.21
2019-05-01T22:35:51.656Z,13.17
2019-05-01T22:38:21.653Z,13.14
2019-05-01T22:41:06.548Z,13.11
2019-05-01T22:43:31.370Z,13.09
2019-05-01T22:46:03.350Z,13.03
2019-05-01T22:48:33.300Z,12.99
2019-05-01T22:51:12.551Z,12.95
2019-05-01T22:53:42.498Z,12.92
2019-05-01T22:56:12.614Z,12.88
2019-05-01T22:58:42.471Z,12.84
2019-05-01T23:01:17.804Z,12.81
2019-05-01T23:03:48.577Z,12.78
2019-05-01T23:06:18.701Z,12.75
2019-05-01T23:08:49.093Z,12.73
2019-05-01T23:11:20.508Z,12.70
2019-05-01T23:13:51.751Z,12.66
2019-05-01T23:16:23.460Z,12.63
2019-05-01T23:18:53.428Z,12.61
2019-05-01T23:21:24.346Z,12.56
2019-05-01T23:23:56.932Z,12.54
2019-05-01T23:26:27.014Z,12.52
2019-05-01T23:28:56.965Z,12.50
2019-05-01T23:31:27.601Z,12.49
2019-05-01T23:33:57.500Z,12.47
2019-05-01T23:36:27.463Z,12.46
2019-05-01T23:38:57.652Z,12.46
2019-05-01T23:41:44.597Z,12.43
2019-05-01T23:44:03.602Z,12.44
2019-05-01T23:46:30.678Z,12.41
2019-05-01T23:49:00.565Z,12.39
2019-05-01T23:51:30.463Z,12.38
2019-05-01T23:54:00.336Z,12.35
2019-05-01T23:56:31.146Z,12.32
2019-05-01T23:59:01.946Z,12.32
